Merida, Mexico

12:13 PM EST on September 30, 2016 (GMT -0500)
Vencedora | | Change Station

Elev 36 ft 20.98 °N, 89.62 °W | Updated 5 minutes ago

Mostly Cloudy
Mostly Cloudy
88.3 °F
Feels Like 100 °F
N
1.2
Wind Variable Wind from North

Today
High -- | Low -- °F
--% Chance of Precip.
Yesterday
High -- | Low -- °F
Precip. -- in
Pressure 30.03 in
Visibility 7.0 miles
Clouds Mostly Cloudy 2000 ft
Heat Index 100 °F
Dew Point 74 °F
Humidity 68%
Rainfall Not available.
Snow Depth Not available.
6:49 AM 6:46 PM
Waning Crescent, 0% visible
METAR MMMD 301644Z 00000KT 7SM BKN020 31/24 A3003 RMK 8/100 MDT CU CI
Pressure 30.03 in
Visibility 7.0 miles
Clouds Mostly Cloudy 2000 ft
Heat Index 100 °F
Dew Point 74 °F
Humidity 68%
Rainfall Not available.
Snow Depth Not available.
6:49 AM 6:46 PM
Waning Crescent, 0% visible
METAR MMMD 301644Z 00000KT 7SM BKN020 31/24 A3003 RMK 8/100 MDT CU CI

10-Day Weather Forecast

No radar image for this location.
×

Almanac

Astronomy

Sep. 30, 2016 Rise Set
Actual Time
Civil Twilight
Nautical Twilight
Astronomical Twilight
Moon
Length of Visible Light
Length of Day
Tomorrow will be .
, % of the Moon is Illuminated

Today's Extremes

Country Highs Country Lows

Community

WunderPhotos

Upload Photos

1,942,752 photos uploaded!

WunderBlog® & News

Nearby

Air Quality

  Air Quality AQ Index Pollutant
Not available.

Snow Depth

Station Depth Elevation

Earthquake Activity

City Distance Mag. Time & Date
Minimum magnitude displayed is 2.5.

Coastal Water Temperatures

Place Temperature

Stations

Nearby Weather Stations

Station Location Temp. Windchill Dew Point Humidity Wind Precip. Elev Updated Type